sensor_id;sensor_type;location;lat;lon;timestamp;temperature;humidity
40868;DHT22;26586;50.708;22.412;2022-11-12T00:00:51;18.10;61.30
40868;DHT22;26586;50.708;22.412;2022-11-12T00:03:17;18.10;62.40
40868;DHT22;26586;50.708;22.412;2022-11-12T00:05:44;18.10;61.20
40868;DHT22;26586;50.708;22.412;2022-11-12T00:08:11;18.10;60.60
40868;DHT22;26586;50.708;22.412;2022-11-12T00:10:38;18.00;61.60
40868;DHT22;26586;50.708;22.412;2022-11-12T00:13:04;18.00;61.00
40868;DHT22;26586;50.708;22.412;2022-11-12T00:15:31;18.00;60.30
40868;DHT22;26586;50.708;22.412;2022-11-12T00:17:57;18.00;60.00
40868;DHT22;26586;50.708;22.412;2022-11-12T00:20:23;18.00;60.40
40868;DHT22;26586;50.708;22.412;2022-11-12T00:22:49;18.00;60.30
40868;DHT22;26586;50.708;22.412;2022-11-12T00:25:16;18.00;60.40
40868;DHT22;26586;50.708;22.412;2022-11-12T00:27:42;18.00;60.80
40868;DHT22;26586;50.708;22.412;2022-11-12T00:30:08;18.00;60.10
40868;DHT22;26586;50.708;22.412;2022-11-12T00:32:35;18.00;60.20
40868;DHT22;26586;50.708;22.412;2022-11-12T00:35:02;18.00;60.30
40868;DHT22;26586;50.708;22.412;2022-11-12T00:37:29;18.00;61.00
40868;DHT22;26586;50.708;22.412;2022-11-12T00:39:55;18.00;61.10
40868;DHT22;26586;50.708;22.412;2022-11-12T00:42:21;18.00;61.50
40868;DHT22;26586;50.708;22.412;2022-11-12T00:44:47;18.00;61.20
40868;DHT22;26586;50.708;22.412;2022-11-12T00:47:15;18.00;61.30
40868;DHT22;26586;50.708;22.412;2022-11-12T00:49:41;17.90;61.40
40868;DHT22;26586;50.708;22.412;2022-11-12T00:52:07;17.90;61.70
40868;DHT22;26586;50.708;22.412;2022-11-12T00:54:34;18.00;61.70
40868;DHT22;26586;50.708;22.412;2022-11-12T00:57:00;17.90;61.70
40868;DHT22;26586;50.708;22.412;2022-11-12T00:59:26;17.90;62.10
40868;DHT22;26586;50.708;22.412;2022-11-12T01:01:52;17.90;61.70
40868;DHT22;26586;50.708;22.412;2022-11-12T01:04:18;17.90;61.70
40868;DHT22;26586;50.708;22.412;2022-11-12T01:06:44;17.90;61.60
40868;DHT22;26586;50.708;22.412;2022-11-12T01:09:11;18.00;61.70
40868;DHT22;26586;50.708;22.412;2022-11-12T01:11:39;17.90;62.10
40868;DHT22;26586;50.708;22.412;2022-11-12T01:14:07;17.90;61.90
40868;DHT22;26586;50.708;22.412;2022-11-12T01:16:36;17.90;61.90
40868;DHT22;26586;50.708;22.412;2022-11-12T01:19:06;17.90;61.80
40868;DHT22;26586;50.708;22.412;2022-11-12T01:21:35;17.80;61.80
40868;DHT22;26586;50.708;22.412;2022-11-12T01:24:02;17.90;61.80
40868;DHT22;26586;50.708;22.412;2022-11-12T01:26:28;17.90;61.70
40868;DHT22;26586;50.708;22.412;2022-11-12T01:28:55;17.90;62.10
40868;DHT22;26586;50.708;22.412;2022-11-12T01:31:24;17.90;63.10
40868;DHT22;26586;50.708;22.412;2022-11-12T01:33:56;17.90;62.10
40868;DHT22;26586;50.708;22.412;2022-11-12T01:36:23;17.90;61.80
40868;DHT22;26586;50.708;22.412;2022-11-12T01:38:50;17.90;62.10
40868;DHT22;26586;50.708;22.412;2022-11-12T01:41:22;17.90;62.30
40868;DHT22;26586;50.708;22.412;2022-11-12T01:44:27;17.90;62.40
40868;DHT22;26586;50.708;22.412;2022-11-12T01:49:57;17.90;62.50
40868;DHT22;26586;50.708;22.412;2022-11-12T01:52:34;17.90;62.50
40868;DHT22;26586;50.708;22.412;2022-11-12T01:55:05;17.90;62.30
40868;DHT22;26586;50.708;22.412;2022-11-12T01:57:37;17.90;62.40
40868;DHT22;26586;50.708;22.412;2022-11-12T02:00:07;17.90;62.40
40868;DHT22;26586;50.708;22.412;2022-11-12T02:02:35;17.90;62.50
40868;DHT22;26586;50.708;22.412;2022-11-12T02:05:05;17.90;62.90
40868;DHT22;26586;50.708;22.412;2022-11-12T02:07:33;17.90;62.70
40868;DHT22;26586;50.708;22.412;2022-11-12T02:10:02;17.90;62.40
40868;DHT22;26586;50.708;22.412;2022-11-12T02:12:28;17.90;62.90
40868;DHT22;26586;50.708;22.412;2022-11-12T02:15:13;17.90;63.30
40868;DHT22;26586;50.708;22.412;2022-11-12T02:17:40;17.80;62.70
40868;DHT22;26586;50.708;22.412;2022-11-12T02:20:11;17.80;62.60
40868;DHT22;26586;50.708;22.412;2022-11-12T02:22:37;17.80;62.70
40868;DHT22;26586;50.708;22.412;2022-11-12T02:25:05;17.80;62.50
40868;DHT22;26586;50.708;22.412;2022-11-12T02:27:31;17.80;62.30
40868;DHT22;26586;50.708;22.412;2022-11-12T02:29:57;17.80;62.30
40868;DHT22;26586;50.708;22.412;2022-11-12T02:32:24;17.80;62.30
40868;DHT22;26586;50.708;22.412;2022-11-12T02:34:50;17.80;62.20
40868;DHT22;26586;50.708;22.412;2022-11-12T02:37:16;17.80;62.10
40868;DHT22;26586;50.708;22.412;2022-11-12T02:39:42;17.80;62.40
40868;DHT22;26586;50.708;22.412;2022-11-12T02:42:08;17.80;62.40
40868;DHT22;26586;50.708;22.412;2022-11-12T02:44:34;17.80;62.50
40868;DHT22;26586;50.708;22.412;2022-11-12T02:47:01;17.80;62.40
40868;DHT22;26586;50.708;22.412;2022-11-12T02:49:27;17.80;62.30
40868;DHT22;26586;50.708;22.412;2022-11-12T02:51:53;17.80;62.60
40868;DHT22;26586;50.708;22.412;2022-11-12T02:54:19;17.80;62.70
40868;DHT22;26586;50.708;22.412;2022-11-12T02:56:45;17.80;62.60
40868;DHT22;26586;50.708;22.412;2022-11-12T02:59:11;17.80;62.10
40868;DHT22;26586;50.708;22.412;2022-11-12T03:01:37;17.80;62.50
40868;DHT22;26586;50.708;22.412;2022-11-12T03:04:04;17.80;62.30
40868;DHT22;26586;50.708;22.412;2022-11-12T03:06:30;17.80;62.30
40868;DHT22;26586;50.708;22.412;2022-11-12T03:08:56;17.80;62.30
40868;DHT22;26586;50.708;22.412;2022-11-12T03:11:23;17.80;62.60
40868;DHT22;26586;50.708;22.412;2022-11-12T03:13:49;17.80;62.50
40868;DHT22;26586;50.708;22.412;2022-11-12T03:16:15;17.80;62.50
40868;DHT22;26586;50.708;22.412;2022-11-12T03:18:41;17.80;62.30
40868;DHT22;26586;50.708;22.412;2022-11-12T03:21:07;17.80;62.60
40868;DHT22;26586;50.708;22.412;2022-11-12T03:23:34;17.70;62.50
40868;DHT22;26586;50.708;22.412;2022-11-12T03:26:03;17.80;62.50
40868;DHT22;26586;50.708;22.412;2022-11-12T03:28:30;17.70;62.10
40868;DHT22;26586;50.708;22.412;2022-11-12T03:30:58;17.70;61.70
40868;DHT22;26586;50.708;22.412;2022-11-12T03:33:24;17.80;62.00
40868;DHT22;26586;50.708;22.412;2022-11-12T03:35:51;17.70;62.00
40868;DHT22;26586;50.708;22.412;2022-11-12T03:38:17;17.70;61.80
40868;DHT22;26586;50.708;22.412;2022-11-12T03:40:43;17.70;62.20
40868;DHT22;26586;50.708;22.412;2022-11-12T03:43:09;17.70;61.90
40868;DHT22;26586;50.708;22.412;2022-11-12T03:45:36;17.70;62.30
40868;DHT22;26586;50.708;22.412;2022-11-12T03:48:02;17.70;62.10
40868;DHT22;26586;50.708;22.412;2022-11-12T03:50:29;17.70;62.10
40868;DHT22;26586;50.708;22.412;2022-11-12T03:52:57;17.70;62.10
40868;DHT22;26586;50.708;22.412;2022-11-12T03:55:26;17.70;62.30
40868;DHT22;26586;50.708;22.412;2022-11-12T03:57:53;17.70;62.30
40868;DHT22;26586;50.708;22.412;2022-11-12T04:00:20;17.70;62.60
40868;DHT22;26586;50.708;22.412;2022-11-12T04:02:47;17.70;62.20
40868;DHT22;26586;50.708;22.412;2022-11-12T04:05:14;17.70;61.90
40868;DHT22;26586;50.708;22.412;2022-11-12T04:08:08;17.70;61.50
40868;DHT22;26586;50.708;22.412;2022-11-12T04:10:53;17.70;61.70
40868;DHT22;26586;50.708;22.412;2022-11-12T04:13:19;17.70;61.90
40868;DHT22;26586;50.708;22.412;2022-11-12T04:16:18;17.70;61.50
40868;DHT22;26586;50.708;22.412;2022-11-12T04:19:04;17.70;61.90
40868;DHT22;26586;50.708;22.412;2022-11-12T04:21:52;17.70;62.40
40868;DHT22;26586;50.708;22.412;2022-11-12T04:27:16;17.60;62.50
40868;DHT22;26586;50.708;22.412;2022-11-12T04:29:44;17.60;62.40
40868;DHT22;26586;50.708;22.412;2022-11-12T04:32:31;17.60;62.30
40868;DHT22;26586;50.708;22.412;2022-11-12T04:34:57;17.60;62.70
40868;DHT22;26586;50.708;22.412;2022-11-12T04:37:25;17.60;62.40
40868;DHT22;26586;50.708;22.412;2022-11-12T04:39:52;17.60;62.60
40868;DHT22;26586;50.708;22.412;2022-11-12T04:42:18;17.60;62.40
40868;DHT22;26586;50.708;22.412;2022-11-12T04:45:09;17.60;62.30
40868;DHT22;26586;50.708;22.412;2022-11-12T04:47:40;17.60;62.30
40868;DHT22;26586;50.708;22.412;2022-11-12T04:50:13;17.60;62.40
40868;DHT22;26586;50.708;22.412;2022-11-12T04:52:40;17.60;61.70
40868;DHT22;26586;50.708;22.412;2022-11-12T04:55:06;17.60;61.50
40868;DHT22;26586;50.708;22.412;2022-11-12T04:57:33;17.60;62.40
40868;DHT22;26586;50.708;22.412;2022-11-12T04:59:59;17.60;61.90
40868;DHT22;26586;50.708;22.412;2022-11-12T05:02:25;17.60;62.10
40868;DHT22;26586;50.708;22.412;2022-11-12T05:04:52;17.50;63.10
40868;DHT22;26586;50.708;22.412;2022-11-12T05:07:18;17.50;61.60
40868;DHT22;26586;50.708;22.412;2022-11-12T05:09:44;17.50;61.40
40868;DHT22;26586;50.708;22.412;2022-11-12T05:12:10;17.50;60.80
40868;DHT22;26586;50.708;22.412;2022-11-12T05:14:36;17.50;61.50
40868;DHT22;26586;50.708;22.412;2022-11-12T05:17:03;17.50;61.70
40868;DHT22;26586;50.708;22.412;2022-11-12T05:19:29;17.50;61.50
40868;DHT22;26586;50.708;22.412;2022-11-12T05:21:55;17.50;64.00
40868;DHT22;26586;50.708;22.412;2022-11-12T05:24:33;17.50;61.90
40868;DHT22;26586;50.708;22.412;2022-11-12T05:27:00;17.50;61.70
40868;DHT22;26586;50.708;22.412;2022-11-12T05:29:26;17.50;61.30
40868;DHT22;26586;50.708;22.412;2022-11-12T05:31:52;17.50;61.80
40868;DHT22;26586;50.708;22.412;2022-11-12T05:34:19;17.50;61.90
40868;DHT22;26586;50.708;22.412;2022-11-12T05:36:45;17.50;64.50
40868;DHT22;26586;50.708;22.412;2022-11-12T05:39:11;17.50;64.10
40868;DHT22;26586;50.708;22.412;2022-11-12T05:41:37;17.50;64.10
40868;DHT22;26586;50.708;22.412;2022-11-12T05:44:03;17.50;64.70
40868;DHT22;26586;50.708;22.412;2022-11-12T05:46:30;17.60;65.40
40868;DHT22;26586;50.708;22.412;2022-11-12T05:48:56;17.60;65.90
40868;DHT22;26586;50.708;22.412;2022-11-12T05:51:22;17.60;66.60
40868;DHT22;26586;50.708;22.412;2022-11-12T05:53:48;17.60;66.40
40868;DHT22;26586;50.708;22.412;2022-11-12T05:56:14;17.70;67.20
40868;DHT22;26586;50.708;22.412;2022-11-12T05:58:41;17.70;67.40
40868;DHT22;26586;50.708;22.412;2022-11-12T06:01:07;17.70;66.90
40868;DHT22;26586;50.708;22.412;2022-11-12T06:03:33;17.70;67.70
40868;DHT22;26586;50.708;22.412;2022-11-12T06:06:00;17.80;67.80
40868;DHT22;26586;50.708;22.412;2022-11-12T06:08:26;17.80;67.70
40868;DHT22;26586;50.708;22.412;2022-11-12T06:10:53;17.80;67.80
40868;DHT22;26586;50.708;22.412;2022-11-12T06:13:21;17.90;67.60
40868;DHT22;26586;50.708;22.412;2022-11-12T06:15:47;17.90;66.90
40868;DHT22;26586;50.708;22.412;2022-11-12T06:18:13;17.90;68.20
40868;DHT22;26586;50.708;22.412;2022-11-12T06:20:40;17.90;67.70
40868;DHT22;26586;50.708;22.412;2022-11-12T06:23:06;18.00;67.70
40868;DHT22;26586;50.708;22.412;2022-11-12T06:25:32;18.00;68.20
40868;DHT22;26586;50.708;22.412;2022-11-12T06:27:58;18.00;68.20
40868;DHT22;26586;50.708;22.412;2022-11-12T06:30:24;18.00;68.20
40868;DHT22;26586;50.708;22.412;2022-11-12T06:32:52;18.10;67.70
40868;DHT22;26586;50.708;22.412;2022-11-12T06:35:18;18.10;67.10
40868;DHT22;26586;50.708;22.412;2022-11-12T06:37:45;18.10;65.70
40868;DHT22;26586;50.708;22.412;2022-11-12T06:40:13;18.10;65.60
40868;DHT22;26586;50.708;22.412;2022-11-12T06:42:40;18.10;66.30
40868;DHT22;26586;50.708;22.412;2022-11-12T06:45:06;18.10;66.30
40868;DHT22;26586;50.708;22.412;2022-11-12T06:47:33;18.10;66.20
40868;DHT22;26586;50.708;22.412;2022-11-12T06:49:59;18.20;66.20
40868;DHT22;26586;50.708;22.412;2022-11-12T06:52:25;18.20;65.50
40868;DHT22;26586;50.708;22.412;2022-11-12T06:54:51;18.20;65.80
40868;DHT22;26586;50.708;22.412;2022-11-12T06:57:17;18.20;65.70
40868;DHT22;26586;50.708;22.412;2022-11-12T06:59:44;18.20;66.00
40868;DHT22;26586;50.708;22.412;2022-11-12T07:02:11;18.20;65.90
40868;DHT22;26586;50.708;22.412;2022-11-12T07:04:38;18.20;65.00
40868;DHT22;26586;50.708;22.412;2022-11-12T07:07:04;18.20;64.80
40868;DHT22;26586;50.708;22.412;2022-11-12T07:09:30;18.30;65.10
40868;DHT22;26586;50.708;22.412;2022-11-12T07:11:56;18.20;64.50
40868;DHT22;26586;50.708;22.412;2022-11-12T07:14:23;18.30;63.10
40868;DHT22;26586;50.708;22.412;2022-11-12T07:16:49;18.20;63.40
40868;DHT22;26586;50.708;22.412;2022-11-12T07:19:15;18.30;63.80
40868;DHT22;26586;50.708;22.412;2022-11-12T07:21:41;18.20;63.10
40868;DHT22;26586;50.708;22.412;2022-11-12T07:24:08;18.20;64.20
40868;DHT22;26586;50.708;22.412;2022-11-12T07:26:34;18.20;64.10
40868;DHT22;26586;50.708;22.412;2022-11-12T07:29:00;18.20;64.20
40868;DHT22;26586;50.708;22.412;2022-11-12T07:31:26;18.20;63.40
40868;DHT22;26586;50.708;22.412;2022-11-12T07:33:53;18.30;63.40
40868;DHT22;26586;50.708;22.412;2022-11-12T07:36:20;18.20;63.30
40868;DHT22;26586;50.708;22.412;2022-11-12T07:38:49;18.20;62.90
40868;DHT22;26586;50.708;22.412;2022-11-12T07:41:17;18.30;63.00
40868;DHT22;26586;50.708;22.412;2022-11-12T07:43:46;18.30;63.90
40868;DHT22;26586;50.708;22.412;2022-11-12T07:46:16;18.30;63.40
40868;DHT22;26586;50.708;22.412;2022-11-12T07:48:42;18.30;63.00
40868;DHT22;26586;50.708;22.412;2022-11-12T07:51:19;18.30;63.00
40868;DHT22;26586;50.708;22.412;2022-11-12T07:53:47;18.30;63.00
40868;DHT22;26586;50.708;22.412;2022-11-12T07:56:18;18.30;64.40
40868;DHT22;26586;50.708;22.412;2022-11-12T07:58:45;18.30;64.40
40868;DHT22;26586;50.708;22.412;2022-11-12T08:03:57;18.30;64.40
40868;DHT22;26586;50.708;22.412;2022-11-12T08:06:24;18.30;65.70
40868;DHT22;26586;50.708;22.412;2022-11-12T08:08:54;18.40;64.20
40868;DHT22;26586;50.708;22.412;2022-11-12T08:11:21;18.30;63.40
40868;DHT22;26586;50.708;22.412;2022-11-12T08:13:47;18.30;59.20
40868;DHT22;26586;50.708;22.412;2022-11-12T08:16:13;18.30;59.90
40868;DHT22;26586;50.708;22.412;2022-11-12T08:18:41;18.30;58.10
40868;DHT22;26586;50.708;22.412;2022-11-12T08:21:10;18.30;57.80
40868;DHT22;26586;50.708;22.412;2022-11-12T08:23:38;18.20;57.70
40868;DHT22;26586;50.708;22.412;2022-11-12T08:26:06;18.20;59.50
40868;DHT22;26586;50.708;22.412;2022-11-12T08:28:35;18.10;60.80
40868;DHT22;26586;50.708;22.412;2022-11-12T08:31:11;18.10;61.70
40868;DHT22;26586;50.708;22.412;2022-11-12T08:33:38;18.20;62.20
40868;DHT22;26586;50.708;22.412;2022-11-12T08:36:07;18.20;62.70
40868;DHT22;26586;50.708;22.412;2022-11-12T08:38:34;18.20;63.10
40868;DHT22;26586;50.708;22.412;2022-11-12T08:41:02;18.20;63.90
40868;DHT22;26586;50.708;22.412;2022-11-12T08:43:29;18.30;63.60
40868;DHT22;26586;50.708;22.412;2022-11-12T08:45:59;18.30;63.40
40868;DHT22;26586;50.708;22.412;2022-11-12T08:48:27;18.30;63.80
40868;DHT22;26586;50.708;22.412;2022-11-12T08:50:56;18.30;63.60
40868;DHT22;26586;50.708;22.412;2022-11-12T08:53:23;18.40;64.40
40868;DHT22;26586;50.708;22.412;2022-11-12T08:55:54;18.40;64.00
40868;DHT22;26586;50.708;22.412;2022-11-12T08:58:25;18.40;64.30
40868;DHT22;26586;50.708;22.412;2022-11-12T09:00:52;18.40;65.90
40868;DHT22;26586;50.708;22.412;2022-11-12T09:03:24;18.50;64.00
40868;DHT22;26586;50.708;22.412;2022-11-12T09:05:51;18.40;63.50
40868;DHT22;26586;50.708;22.412;2022-11-12T09:08:20;18.40;63.80
40868;DHT22;26586;50.708;22.412;2022-11-12T09:10:50;18.40;64.90
40868;DHT22;26586;50.708;22.412;2022-11-12T09:13:23;18.40;64.60
40868;DHT22;26586;50.708;22.412;2022-11-12T09:15:52;18.40;63.40
40868;DHT22;26586;50.708;22.412;2022-11-12T09:18:29;18.50;64.60
40868;DHT22;26586;50.708;22.412;2022-11-12T09:20:59;18.50;66.50
40868;DHT22;26586;50.708;22.412;2022-11-12T09:23:32;18.50;67.70
40868;DHT22;26586;50.708;22.412;2022-11-12T09:25:59;18.50;68.10
40868;DHT22;26586;50.708;22.412;2022-11-12T09:28:28;18.50;68.30
40868;DHT22;26586;50.708;22.412;2022-11-12T09:30:57;18.50;67.50
40868;DHT22;26586;50.708;22.412;2022-11-12T09:33:29;18.60;67.50
40868;DHT22;26586;50.708;22.412;2022-11-12T09:35:59;18.60;67.60
40868;DHT22;26586;50.708;22.412;2022-11-12T09:38:26;18.60;68.90
40868;DHT22;26586;50.708;22.412;2022-11-12T09:41:11;18.50;68.40
40868;DHT22;26586;50.708;22.412;2022-11-12T09:44:17;18.60;68.20
40868;DHT22;26586;50.708;22.412;2022-11-12T09:46:57;18.60;68.90
40868;DHT22;26586;50.708;22.412;2022-11-12T09:49:43;18.60;68.10
40868;DHT22;26586;50.708;22.412;2022-11-12T09:52:22;18.60;68.60
40868;DHT22;26586;50.708;22.412;2022-11-12T09:55:01;18.60;68.50
40868;DHT22;26586;50.708;22.412;2022-11-12T09:57:31;18.60;67.60
40868;DHT22;26586;50.708;22.412;2022-11-12T09:59:58;18.60;67.00
40868;DHT22;26586;50.708;22.412;2022-11-12T10:02:46;18.60;68.20
40868;DHT22;26586;50.708;22.412;2022-11-12T10:05:27;18.60;66.80
40868;DHT22;26586;50.708;22.412;2022-11-12T10:19:15;18.60;62.40
40868;DHT22;26586;50.708;22.412;2022-11-12T10:24:36;18.50;61.10
40868;DHT22;26586;50.708;22.412;2022-11-12T10:27:17;18.50;60.50
40868;DHT22;26586;50.708;22.412;2022-11-12T10:30:05;18.50;60.60
40868;DHT22;26586;50.708;22.412;2022-11-12T10:32:33;18.50;61.50
40868;DHT22;26586;50.708;22.412;2022-11-12T10:35:00;18.50;61.80
40868;DHT22;26586;50.708;22.412;2022-11-12T10:43:03;18.50;60.00
40868;DHT22;26586;50.708;22.412;2022-11-12T10:45:30;18.50;60.20
40868;DHT22;26586;50.708;22.412;2022-11-12T10:47:57;18.40;60.10
40868;DHT22;26586;50.708;22.412;2022-11-12T10:50:40;18.40;60.30
40868;DHT22;26586;50.708;22.412;2022-11-12T10:53:11;18.50;61.10
40868;DHT22;26586;50.708;22.412;2022-11-12T10:55:54;18.50;63.60
40868;DHT22;26586;50.708;22.412;2022-11-12T10:58:21;18.50;63.40
40868;DHT22;26586;50.708;22.412;2022-11-12T11:03:35;18.50;63.60
40868;DHT22;26586;50.708;22.412;2022-11-12T11:06:19;18.50;62.00
40868;DHT22;26586;50.708;22.412;2022-11-12T11:08:52;18.50;62.20
40868;DHT22;26586;50.708;22.412;2022-11-12T11:11:20;18.50;61.20
40868;DHT22;26586;50.708;22.412;2022-11-12T11:13:48;18.50;60.80
40868;DHT22;26586;50.708;22.412;2022-11-12T11:16:20;18.50;61.00
40868;DHT22;26586;50.708;22.412;2022-11-12T11:18:50;18.40;61.00
40868;DHT22;26586;50.708;22.412;2022-11-12T11:57:31;18.50;65.70
40868;DHT22;26586;50.708;22.412;2022-11-12T12:05:42;18.60;62.40
40868;DHT22;26586;50.708;22.412;2022-11-12T12:11:28;18.60;62.70
40868;DHT22;26586;50.708;22.412;2022-11-12T12:17:25;18.60;63.70
40868;DHT22;26586;50.708;22.412;2022-11-12T12:22:49;18.60;62.60
40868;DHT22;26586;50.708;22.412;2022-11-12T12:25:21;18.60;64.50
40868;DHT22;26586;50.708;22.412;2022-11-12T12:27:55;18.60;62.80
40868;DHT22;26586;50.708;22.412;2022-11-12T12:30:24;18.60;62.60
40868;DHT22;26586;50.708;22.412;2022-11-12T12:35:51;18.60;60.90
40868;DHT22;26586;50.708;22.412;2022-11-12T12:38:26;18.70;61.60
40868;DHT22;26586;50.708;22.412;2022-11-12T12:41:02;18.70;60.70
40868;DHT22;26586;50.708;22.412;2022-11-12T12:46:22;18.60;60.90
40868;DHT22;26586;50.708;22.412;2022-11-12T12:48:51;18.70;60.90
40868;DHT22;26586;50.708;22.412;2022-11-12T12:51:19;18.70;64.70
40868;DHT22;26586;50.708;22.412;2022-11-12T12:53:45;18.70;67.90
40868;DHT22;26586;50.708;22.412;2022-11-12T12:58:43;18.80;63.10
40868;DHT22;26586;50.708;22.412;2022-11-12T13:01:32;18.70;64.70
40868;DHT22;26586;50.708;22.412;2022-11-12T13:04:08;18.80;61.80
40868;DHT22;26586;50.708;22.412;2022-11-12T13:06:38;18.70;63.20
40868;DHT22;26586;50.708;22.412;2022-11-12T13:40:35;18.80;63.50
40868;DHT22;26586;50.708;22.412;2022-11-12T13:43:25;18.80;59.20
40868;DHT22;26586;50.708;22.412;2022-11-12T13:48:43;18.80;56.00
40868;DHT22;26586;50.708;22.412;2022-11-12T13:53:44;18.70;54.50
40868;DHT22;26586;50.708;22.412;2022-11-12T13:56:27;18.80;54.60
40868;DHT22;26586;50.708;22.412;2022-11-12T13:59:12;18.70;54.20
40868;DHT22;26586;50.708;22.412;2022-11-12T14:01:40;18.70;54.40
40868;DHT22;26586;50.708;22.412;2022-11-12T14:04:14;18.70;54.00
40868;DHT22;26586;50.708;22.412;2022-11-12T14:06:49;18.70;54.30
40868;DHT22;26586;50.708;22.412;2022-11-12T14:22:41;18.70;56.90
40868;DHT22;26586;50.708;22.412;2022-11-12T14:25:17;18.70;57.50
40868;DHT22;26586;50.708;22.412;2022-11-12T14:27:48;18.70;58.60
40868;DHT22;26586;50.708;22.412;2022-11-12T14:32:56;18.70;58.50
40868;DHT22;26586;50.708;22.412;2022-11-12T14:35:29;18.70;59.00
40868;DHT22;26586;50.708;22.412;2022-11-12T14:38:25;18.70;58.40
40868;DHT22;26586;50.708;22.412;2022-11-12T14:41:13;18.80;57.70
40868;DHT22;26586;50.708;22.412;2022-11-12T14:43:43;18.70;56.90
40868;DHT22;26586;50.708;22.412;2022-11-12T14:52:22;18.70;56.80
40868;DHT22;26586;50.708;22.412;2022-11-12T14:54:55;18.70;56.00
40868;DHT22;26586;50.708;22.412;2022-11-12T14:57:28;18.70;58.20
40868;DHT22;26586;50.708;22.412;2022-11-12T14:59:55;18.80;57.20
40868;DHT22;26586;50.708;22.412;2022-11-12T15:02:32;18.70;57.90
40868;DHT22;26586;50.708;22.412;2022-11-12T15:05:02;18.80;58.40
40868;DHT22;26586;50.708;22.412;2022-11-12T15:07:34;18.80;57.70
40868;DHT22;26586;50.708;22.412;2022-11-12T15:10:36;18.80;58.00
40868;DHT22;26586;50.708;22.412;2022-11-12T15:13:15;18.80;57.60
40868;DHT22;26586;50.708;22.412;2022-11-12T15:16:04;18.80;59.70
40868;DHT22;26586;50.708;22.412;2022-11-12T15:18:36;18.80;58.30
40868;DHT22;26586;50.708;22.412;2022-11-12T15:21:25;18.80;59.60
40868;DHT22;26586;50.708;22.412;2022-11-12T15:24:53;18.70;58.50
40868;DHT22;26586;50.708;22.412;2022-11-12T15:27:53;18.80;59.00
40868;DHT22;26586;50.708;22.412;2022-11-12T15:30:25;18.80;58.20
40868;DHT22;26586;50.708;22.412;2022-11-12T15:33:16;18.80;57.60
40868;DHT22;26586;50.708;22.412;2022-11-12T15:35:43;18.80;58.40
40868;DHT22;26586;50.708;22.412;2022-11-12T15:38:28;18.80;57.70
40868;DHT22;26586;50.708;22.412;2022-11-12T15:40:57;18.80;58.60
40868;DHT22;26586;50.708;22.412;2022-11-12T15:43:35;18.80;60.20
40868;DHT22;26586;50.708;22.412;2022-11-12T15:46:01;18.80;59.90
40868;DHT22;26586;50.708;22.412;2022-11-12T15:48:28;18.80;60.10
40868;DHT22;26586;50.708;22.412;2022-11-12T15:50:54;18.80;58.70
40868;DHT22;26586;50.708;22.412;2022-11-12T15:53:20;18.80;59.90
40868;DHT22;26586;50.708;22.412;2022-11-12T15:55:47;18.80;59.30
40868;DHT22;26586;50.708;22.412;2022-11-12T15:58:19;18.80;59.60
40868;DHT22;26586;50.708;22.412;2022-11-12T16:00:50;18.70;58.30
40868;DHT22;26586;50.708;22.412;2022-11-12T16:03:18;18.70;58.20
40868;DHT22;26586;50.708;22.412;2022-11-12T16:05:45;18.80;57.80
40868;DHT22;26586;50.708;22.412;2022-11-12T16:08:12;18.70;57.80
40868;DHT22;26586;50.708;22.412;2022-11-12T16:10:40;18.70;57.20
40868;DHT22;26586;50.708;22.412;2022-11-12T16:13:13;18.70;57.30
40868;DHT22;26586;50.708;22.412;2022-11-12T16:15:40;18.70;57.10
40868;DHT22;26586;50.708;22.412;2022-11-12T16:18:15;18.70;55.60
40868;DHT22;26586;50.708;22.412;2022-11-12T16:20:41;18.70;56.00
40868;DHT22;26586;50.708;22.412;2022-11-12T16:23:07;18.70;55.30
40868;DHT22;26586;50.708;22.412;2022-11-12T16:25:35;18.60;55.90
40868;DHT22;26586;50.708;22.412;2022-11-12T16:28:13;18.60;55.60
40868;DHT22;26586;50.708;22.412;2022-11-12T16:30:44;18.60;55.90
40868;DHT22;26586;50.708;22.412;2022-11-12T16:33:25;18.60;56.00
40868;DHT22;26586;50.708;22.412;2022-11-12T16:35:51;18.60;55.90
40868;DHT22;26586;50.708;22.412;2022-11-12T16:38:18;18.60;55.90
40868;DHT22;26586;50.708;22.412;2022-11-12T16:41:07;18.60;55.50
40868;DHT22;26586;50.708;22.412;2022-11-12T16:43:34;18.60;56.00
40868;DHT22;26586;50.708;22.412;2022-11-12T16:46:00;18.60;55.40
40868;DHT22;26586;50.708;22.412;2022-11-12T16:48:26;18.50;55.00
40868;DHT22;26586;50.708;22.412;2022-11-12T16:50:58;18.50;56.40
40868;DHT22;26586;50.708;22.412;2022-11-12T16:53:27;18.50;57.80
40868;DHT22;26586;50.708;22.412;2022-11-12T16:55:55;18.50;58.90
40868;DHT22;26586;50.708;22.412;2022-11-12T16:58:22;18.50;58.50
40868;DHT22;26586;50.708;22.412;2022-11-12T17:00:49;18.50;57.80
40868;DHT22;26586;50.708;22.412;2022-11-12T17:03:21;18.50;58.40
40868;DHT22;26586;50.708;22.412;2022-11-12T17:05:53;18.50;57.50
40868;DHT22;26586;50.708;22.412;2022-11-12T17:08:31;18.50;57.30
40868;DHT22;26586;50.708;22.412;2022-11-12T17:11:04;18.50;57.50
40868;DHT22;26586;50.708;22.412;2022-11-12T17:13:34;18.50;59.60
40868;DHT22;26586;50.708;22.412;2022-11-12T17:16:03;18.50;60.10
40868;DHT22;26586;50.708;22.412;2022-11-12T17:18:30;18.50;61.20
40868;DHT22;26586;50.708;22.412;2022-11-12T17:21:09;18.50;62.10
40868;DHT22;26586;50.708;22.412;2022-11-12T17:23:36;18.50;59.20
40868;DHT22;26586;50.708;22.412;2022-11-12T17:26:08;18.50;60.30
40868;DHT22;26586;50.708;22.412;2022-11-12T17:28:45;18.50;60.00
40868;DHT22;26586;50.708;22.412;2022-11-12T17:31:14;18.50;60.40
40868;DHT22;26586;50.708;22.412;2022-11-12T17:33:43;18.60;60.10
40868;DHT22;26586;50.708;22.412;2022-11-12T17:36:12;18.50;61.80
40868;DHT22;26586;50.708;22.412;2022-11-12T17:38:39;18.60;61.10
40868;DHT22;26586;50.708;22.412;2022-11-12T17:41:11;18.60;61.20
40868;DHT22;26586;50.708;22.412;2022-11-12T17:43:38;18.60;64.30
40868;DHT22;26586;50.708;22.412;2022-11-12T17:46:05;18.60;63.40
40868;DHT22;26586;50.708;22.412;2022-11-12T17:48:33;18.60;62.80
40868;DHT22;26586;50.708;22.412;2022-11-12T17:51:28;18.60;61.20
40868;DHT22;26586;50.708;22.412;2022-11-12T17:53:55;18.60;63.10
40868;DHT22;26586;50.708;22.412;2022-11-12T17:56:22;18.60;63.40
40868;DHT22;26586;50.708;22.412;2022-11-12T17:58:49;18.60;59.70
40868;DHT22;26586;50.708;22.412;2022-11-12T18:03:43;18.60;60.40
40868;DHT22;26586;50.708;22.412;2022-11-12T18:06:16;18.50;62.00